| Record Date MM/DD/YYYY | Record Time HH:MM:SS | Record Julian Date NNN day of the year | Air Temperature Max (Degrees Fahrenheit F) | Time Max Air Temperature HH:MM:SS This is the time of max air temp for the prior hour interval listed for record [Time]. | Air Temperature Min (Degrees Fahrenheit F) | Time Min Air Temperature HH:MM:SS This is the time of min air temp for the prior hour interval listed for record [Time]. | Air Temperature Observed (Degrees Fahrenheit F) This is an instantaneous reading at the record [Time]. | Relative Humidity Max (Percent) | Time Max Relative Humidity HH:MM:SS This is the time of max relative humidity for the prior hour interval listed for record [Time]. | Relative Humidity Min (Percent) | Time Min Relative Humidity HH:MM:SS This is the time of min relative humidity for the prior hour interval listed for record [Time]. | Relative Humidity Observed (Percent) This is an instantaneous reading at the record [Time]. | Precipitation (Inches n.nn) rain fall that occurred during the prior hour interval listed for record [Time]. | Wind Speed (Miles Per Hour) Resultant Speed that occurred during the prior hour interval listed for record [Time]. | Wind Direction (Degrees) Resultant Direction that occurred during the prior hour interval listed for record [Time]. | Solar Radiation (Langley's) that occurred during the prior hour interval listed for record [Time]. | Soil Temperature Average at 2 inch depth (Degrees Fahrenheit F) that occurred during the prior hour interval listed for record [Time]. | Soil Temperature Observed at 2 inch depth (Degrees Fahrenheit F) This is an instantaneous reading at the record [Time]. | Soil Temperature Average at 4 inch depth (Degrees Fahrenheit F) that occurred during the prior hour interval listed for record [Time]. | Soil Temperature Observed at 4 inch depth (Degrees Fahrenheit F) This is an instantaneous reading at the record [Time]. |
|---|---|---|---|---|---|---|---|---|---|---|---|---|---|---|---|---|---|---|---|---|
| 08/29/2026 | 0:00:00 | 241 | 73 | 23:17:00 | 71 | 23:39:05 | 72 | 81 | 23:32:03 | 74 | 23:17:00 | 78.84 | 0 | 1.1 | 42 | 0 | 84 | 83 | 83 | 82 |
| 08/29/2026 | 1:00:00 | 241 | 72 | 0:00:01 | 69 | 0:38:00 | 70 | 86 | 0:41:00 | 79 | 0:00:04 | 81.1 | 0 | 0.2 | 198 | 0 | 83 | 83 | 82 | 82 |
| 08/29/2026 | 2:00:00 | 241 | 70 | 1:01:05 | 68 | 1:58:05 | 68 | 86 | 1:59:01 | 81 | 1:02:04 | 85.3 | 0 | 1.0 | 314 | 0 | 83 | 82 | 81 | 81 |
| 08/29/2026 | 3:00:00 | 241 | 69 | 2:02:04 | 67 | 2:54:05 | 68 | 90 | 2:56:03 | 83 | 2:05:03 | 88.4 | 0 | 1.3 | 347 | 0 | 82 | 82 | 81 | 80 |
| 08/29/2026 | 4:00:00 | 241 | 68 | 3:03:04 | 67 | 3:33:02 | 67 | 89 | 3:20:03 | 87 | 3:04:00 | 88.7 | 0 | 0.9 | 14 | 0 | 82 | 81 | 80 | 80 |
| 08/29/2026 | 5:00:00 | 241 | 67 | 4:00:00 | 65 | 4:48:05 | 66 | 93 | 4:41:02 | 89 | 4:03:03 | 91.5 | 0 | 0.6 | 222 | 0 | 81 | 81 | 80 | 79 |
| 08/29/2026 | 6:00:00 | 241 | 67 | 5:59:05 | 65 | 5:12:04 | 67 | 93 | 5:19:03 | 91 | 5:44:02 | 90.8 | 0 | 1.0 | 352 | 1 | 81 | 81 | 79 | 79 |
| 08/29/2026 | 7:00:00 | 241 | 73 | 6:59:01 | 67 | 6:00:00 | 73 | 91 | 6:00:00 | 82 | 7:00:00 | 81.8 | 0 | 0.5 | 77 | 10 | 80 | 80 | 79 | 79 |
| 08/29/2026 | 8:00:00 | 241 | 79 | 7:54:02 | 73 | 7:00:01 | 78 | 85 | 7:02:02 | 70 | 7:55:01 | 71.61 | 0 | 1.9 | 75 | 25 | 80 | 80 | 79 | 79 |
| 08/29/2026 | 9:00:00 | 241 | 84 | 8:55:03 | 78 | 8:01:04 | 83 | 74 | 8:04:04 | 63 | 8:52:00 | 68.01 | 0 | 3.0 | 105 | 46 | 80 | 81 | 80 | 80 |
| 08/29/2026 | 10:00:00 | 241 | 90 | 9:57:04 | 83 | 9:01:04 | 90 | 70 | 9:03:03 | 49 | 9:54:02 | 49.5 | 0 | 3.6 | 132 | 60 | 81 | 81 | 81 | 81 |
| 08/29/2026 | 11:00:00 | 241 | 92 | 10:49:01 | 88 | 10:23:02 | 92 | 59 | 10:25:02 | 39 | 10:59:05 | 39.14 | 0 | 3.0 | 140 | 70 | 81 | 82 | 82 | 83 |
| 08/29/2026 | 12:00:00 | 241 | 93 | 11:56:00 | 89 | 11:41:00 | 93 | 55 | 11:41:05 | 36 | 11:56:01 | 38.18 | 0 | 4.7 | 19 | 78 | 82 | 83 | 84 | 85 |
| 08/29/2026 | 13:00:00 | 241 | 93 | 12:00:04 | 89 | 12:57:05 | 89 | 55 | 12:52:05 | 38 | 12:23:02 | 43.77 | 0 | 5.2 | 36 | 65 | 83 | 84 | 85 | 86 |
| 08/29/2026 | 14:00:00 | 241 | 93 | 13:47:01 | 89 | 13:00:00 | 92 | 57 | 13:19:02 | 37 | 13:54:04 | 45.18 | 0 | 5.4 | 32 | 65 | 84 | 85 | 86 | 87 |
| 08/29/2026 | 15:00:00 | 241 | 96 | 14:30:04 | 91 | 14:02:02 | 93 | 49 | 14:01:02 | 33 | 14:30:05 | 42.26 | 0 | 4.7 | 360 | 63 | 85 | 85 | 87 | 87 |
| 08/29/2026 | 16:00:00 | 241 | 93 | 15:45:02 | 90 | 15:38:01 | 93 | 51 | 15:30:01 | 36 | 15:59:02 | 36.92 | 0 | 5.5 | 44 | 28 | 86 | 86 | 87 | 87 |
| 08/29/2026 | 17:00:00 | 241 | 93 | 16:01:01 | 90 | 16:58:05 | 90 | 46 | 16:28:02 | 35 | 16:05:02 | 41.26 | 0 | 4.9 | 34 | 24 | 86 | 86 | 87 | 86 |
| 08/29/2026 | 18:00:00 | 241 | 91 | 17:14:04 | 88 | 18:00:00 | 88 | 45 | 17:05:01 | 37 | 17:12:05 | 43.53 | 0 | 4.3 | 24 | 12 | 85 | 85 | 86 | 86 |
| 08/29/2026 | 19:00:00 | 241 | 88 | 18:00:00 | 81 | 19:00:00 | 81 | 57 | 18:51:02 | 43 | 18:00:00 | 55.78 | 0 | 2.9 | 4 | 1 | 85 | 85 | 85 | 85 |
| 08/29/2026 | 20:00:00 | 241 | 81 | 19:00:00 | 75 | 20:00:00 | 75 | 70 | 19:58:02 | 55 | 19:00:02 | 67.65 | 0 | 0.9 | 311 | 0 | 85 | 84 | 84 | 84 |
| 08/29/2026 | 21:00:00 | 241 | 76 | 20:02:00 | 73 | 20:59:01 | 73 | 77 | 20:15:03 | 65 | 20:01:01 | 72.13 | 0 | 0.9 | 161 | 0 | 84 | 84 | 83 | 83 |
| 08/29/2026 | 22:00:00 | 241 | 75 | 21:58:02 | 71 | 21:41:00 | 75 | 81 | 21:29:01 | 65 | 21:59:04 | 64.82 | 0 | 0.7 | 112 | 0 | 83 | 83 | 82 | 82 |
| 08/29/2026 | 23:00:00 | 241 | 75 | 22:02:01 | 70 | 22:59:03 | 70 | 83 | 23:00:00 | 64 | 22:01:04 | 83.2 | 0 | 0.5 | 149 | 0 | 83 | 82 | 82 | 81 |
| 08/30/2026 | 0:00:00 | 242 | 71 | 23:37:04 | 68 | 23:20:02 | 69 | 88 | 23:21:00 | 77 | 23:36:04 | 84.6 | 0 | 0.6 | 86 | 0 | 82 | 82 | 81 | 81 |
| 08/30/2026 | 1:00:00 | 242 | 70 | 0:12:02 | 68 | 0:56:00 | 69 | 86 | 0:54:04 | 82 | 0:36:02 | 85 | 0 | 2.1 | 100 | 0 | 82 | 81 | 80 | 80 |
| 08/30/2026 | 2:00:00 | 242 | 69 | 1:38:05 | 68 | 1:19:03 | 69 | 87 | 1:17:00 | 82 | 1:39:04 | 85 | 0 | 0.7 | 7 | 0 | 81 | 81 | 80 | 80 |
| 08/30/2026 | 3:00:00 | 242 | 69 | 2:00:02 | 68 | 2:42:02 | 68 | 88 | 2:27:02 | 85 | 2:00:00 | 87.3 | 0 | 0.0 | 0 | 0 | 81 | 81 | 79 | 79 |
| 08/30/2026 | 4:00:00 | 242 | 69 | 3:30:03 | 68 | 3:59:02 | 68 | 91 | 4:00:00 | 84 | 3:29:01 | 90.7 | 0 | 0.1 | 74 | 0 | 81 | 80 | 79 | 79 |
| 08/30/2026 | 5:00:00 | 242 | 68 | 4:00:00 | 67 | 4:52:02 | 67 | 92 | 5:00:00 | 90 | 4:27:02 | 92.4 | 0 | 0.3 | 139 | 0 | 80 | 80 | 79 | 79 |
| 08/30/2026 | 6:00:00 | 242 | 67 | 5:59:03 | 66 | 5:46:04 | 67 | 94 | 5:38:02 | 91 | 5:59:03 | 90.9 | 0 | 0.4 | 106 | 0 | 80 | 80 | 78 | 78 |
| 08/30/2026 | 7:00:00 | 242 | 74 | 6:59:05 | 67 | 6:00:01 | 74 | 91 | 6:05:01 | 83 | 6:59:05 | 83.5 | 0 | 0.5 | 115 | 7 | 80 | 80 | 78 | 78 |
| 08/30/2026 | 8:00:00 | 242 | 82 | 7:59:00 | 74 | 7:00:00 | 82 | 84 | 7:00:03 | 68 | 7:42:01 | 68.98 | 0 | 2.9 | 161 | 29 | 79 | 79 | 78 | 79 |
| 08/30/2026 | 9:00:00 | 242 | 88 | 8:59:04 | 82 | 8:00:01 | 88 | 72 | 8:03:03 | 57 | 8:53:01 | 57.54 | 0 | 4.3 | 159 | 45 | 80 | 80 | 79 | 79 |
| 08/30/2026 | 10:00:00 | 242 | 92 | 9:59:02 | 88 | 9:00:00 | 92 | 62 | 9:00:05 | 48 | 9:52:04 | 50.52 | 0 | 3.7 | 178 | 59 | 80 | 80 | 80 | 81 |
| 08/30/2026 | 11:00:00 | 242 | 96 | 10:59:01 | 92 | 10:00:05 | 96 | 56 | 10:03:01 | 31 | 10:59:02 | 31.13 | 0 | 4.2 | 192 | 70 | 81 | 81 | 81 | 82 |
| 08/30/2026 | 12:00:00 | 242 | 96 | 11:07:01 | 93 | 11:59:05 | 93 | 52 | 11:36:04 | 31 | 11:04:02 | 44.6 | 0 | 4.5 | 169 | 75 | 82 | 82 | 83 | 84 |
| 08/30/2026 | 13:00:00 | 242 | 97 | 12:37:05 | 93 | 12:01:05 | 94 | 57 | 12:54:01 | 39 | 12:22:01 | 49.79 | 0 | 4.9 | 146 | 76 | 83 | 83 | 84 | 85 |
| 08/30/2026 | 14:00:00 | 242 | 98 | 13:36:02 | 92 | 13:58:04 | 92 | 62 | 13:57:03 | 42 | 13:25:04 | 52.41 | 0 | 4.4 | 125 | 64 | 84 | 84 | 86 | 86 |
| 08/30/2026 | 15:00:00 | 242 | 98 | 14:18:04 | 92 | 15:00:00 | 92 | 59 | 14:59:02 | 43 | 14:18:03 | 58.94 | 0 | 5.8 | 165 | 46 | 84 | 85 | 86 | 86 |
| 08/30/2026 | 16:00:00 | 242 | 99 | 15:42:01 | 91 | 15:00:03 | 96 | 59 | 15:00:02 | 43 | 15:42:00 | 49.42 | 0 | 5.6 | 181 | 28 | 85 | 85 | 86 | 86 |
| 08/30/2026 | 17:00:00 | 242 | 97 | 16:10:03 | 93 | 17:00:00 | 93 | 54 | 16:48:03 | 45 | 16:08:03 | 52.27 | 0 | 4.2 | 179 | 11 | 85 | 85 | 86 | 85 |
| 08/30/2026 | 18:00:00 | 242 | 95 | 17:23:01 | 93 | 17:04:00 | 93 | 52 | 17:02:04 | 47 | 17:22:05 | 50.55 | 0 | 3.8 | 185 | 8 | 85 | 85 | 85 | 85 |
| 08/30/2026 | 19:00:00 | 242 | 93 | 18:00:01 | 87 | 18:41:00 | 88 | 66 | 18:40:01 | 50 | 18:05:05 | 60.72 | 0 | 3.1 | 153 | 1 | 84 | 84 | 85 | 85 |
| 08/30/2026 | 20:00:00 | 242 | 88 | 19:00:02 | 84 | 19:59:03 | 84 | 69 | 19:58:04 | 60 | 19:00:04 | 69.29 | 0 | 2.4 | 149 | 0 | 84 | 84 | 84 | 84 |
| 08/30/2026 | 21:00:00 | 242 | 84 | 20:00:01 | 80 | 20:59:00 | 80 | 76 | 20:57:04 | 69 | 20:00:00 | 75.11 | 0 | 1.3 | 166 | 0 | 84 | 84 | 84 | 83 |
| 08/30/2026 | 22:00:00 | 242 | 81 | 21:12:01 | 77 | 21:59:05 | 77 | 86 | 21:35:05 | 75 | 21:00:04 | 85.5 | 0 | 1.2 | 112 | 0 | 84 | 83 | 83 | 83 |
| 08/30/2026 | 23:00:00 | 242 | 78 | 22:09:03 | 76 | 22:59:04 | 76 | 87 | 22:58:03 | 84 | 22:09:00 | 86.8 | 0 | 0.7 | 104 | 0 | 83 | 83 | 83 | 82 |
| 08/31/2026 | 0:00:00 | 243 | 76 | 23:14:02 | 74 | 23:56:05 | 75 | 90 | 23:58:02 | 85 | 23:12:05 | 89.9 | 0 | 1.4 | 111 | 0 | 83 | 83 | 82 | 82 |
| 08/31/2026 | 1:00:00 | 243 | 76 | 0:59:02 | 74 | 0:29:02 | 76 | 92 | 0:33:01 | 87 | 0:59:05 | 87.5 | 0 | 0.1 | 145 | 0 | 82 | 82 | 82 | 81 |
| 08/31/2026 | 2:00:00 | 243 | 77 | 1:33:02 | 75 | 1:55:05 | 75 | 89 | 1:57:04 | 85 | 1:36:03 | 88.5 | 0 | 1.7 | 151 | 0 | 82 | 82 | 81 | 81 |
| 08/31/2026 | 3:00:00 | 243 | 76 | 2:16:05 | 73 | 3:00:00 | 73 | 93 | 2:59:05 | 86 | 2:23:05 | 92.6 | 0 | 0.8 | 94 | 0 | 82 | 82 | 81 | 81 |
| 08/31/2026 | 4:00:00 | 243 | 74 | 3:49:01 | 72 | 3:23:01 | 73 | 93 | 3:24:00 | 91 | 3:42:01 | 92.1 | 0 | 0.7 | 149 | 0 | 82 | 81 | 81 | 81 |
| 08/31/2026 | 5:00:00 | 243 | 73 | 4:00:01 | 72 | 4:43:00 | 72 | 94 | 4:46:05 | 92 | 4:03:01 | 94.1 | 0 | 0.7 | 67 | 0 | 81 | 81 | 80 | 80 |
| 08/31/2026 | 6:00:00 | 243 | 72 | 6:00:00 | 71 | 5:42:01 | 72 | 95 | 5:36:00 | 94 | 5:00:01 | 94.2 | 0 | 0.8 | 83 | 1 | 81 | 81 | 80 | 80 |
| 08/31/2026 | 7:00:00 | 243 | 81 | 7:00:00 | 72 | 6:00:00 | 81 | 94 | 6:00:00 | 82 | 6:59:05 | 82.3 | 0 | 0.3 | 91 | 11 | 81 | 81 | 80 | 80 |
| 08/31/2026 | 8:00:00 | 243 | 86 | 7:40:05 | 81 | 7:00:00 | 85 | 82 | 7:00:05 | 72 | 7:41:04 | 74.25 | 0 | 2.3 | 207 | 27 | 81 | 81 | 80 | 80 |
| 08/31/2026 | 9:00:00 | 243 | 90 | 8:52:00 | 85 | 8:00:01 | 90 | 74 | 8:00:01 | 63 | 8:41:05 | 64.05 | 0 | 2.9 | 212 | 44 | 81 | 81 | 81 | 81 |
| 08/31/2026 | 10:00:00 | 243 | 93 | 9:57:03 | 90 | 9:00:01 | 92 | 66 | 9:01:02 | 56 | 9:31:01 | 59.68 | 0 | 4.2 | 164 | 59 | 81 | 82 | 82 | 82 |
| 08/31/2026 | 11:00:00 | 243 | 95 | 10:36:03 | 91 | 10:03:03 | 92 | 64 | 10:03:01 | 51 | 10:36:05 | 59.34 | 0 | 3.8 | 172 | 57 | 82 | 82 | 83 | 84 |
| 08/31/2026 | 12:00:00 | 243 | 95 | 11:16:04 | 92 | 11:23:00 | 94 | 65 | 11:49:04 | 50 | 11:17:00 | 50.37 | 0 | 4.1 | 140 | 61 | 83 | 83 | 84 | 85 |
| 08/31/2026 | 13:00:00 | 243 | 96 | 12:12:03 | 91 | 12:26:01 | 93 | 63 | 12:18:00 | 48 | 12:09:01 | 54.19 | 0 | 3.5 | 107 | 53 | 84 | 84 | 85 | 86 |
| 08/31/2026 | 14:00:00 | 243 | 99 | 13:56:04 | 91 | 13:08:01 | 99 | 65 | 13:06:01 | 39 | 13:57:05 | 43.4 | 0 | 4.1 | 129 | 61 | 84 | 85 | 86 | 86 |
| 08/31/2026 | 15:00:00 | 243 | 100 | 14:08:04 | 96 | 14:51:03 | 97 | 54 | 14:52:03 | 38 | 14:08:05 | 44.8 | 0 | 5.0 | 160 | 60 | 85 | 85 | 87 | 87 |
| 08/31/2026 | 16:00:00 | 243 | 100 | 15:38:03 | 97 | 15:00:00 | 99 | 48 | 15:08:00 | 39 | 15:23:03 | 41.87 | 0 | 5.4 | 158 | 39 | 85 | 85 | 87 | 87 |
| 08/31/2026 | 17:00:00 | 243 | 99 | 16:50:02 | 97 | 16:21:01 | 98 | 48 | 16:15:02 | 40 | 16:00:04 | 44.07 | 0 | 5.0 | 157 | 25 | 85 | 85 | 86 | 86 |
| 08/31/2026 | 18:00:00 | 243 | 97 | 17:00:00 | 93 | 17:46:01 | 93 | 54 | 17:29:00 | 43 | 17:00:03 | 52.09 | 0 | 4.6 | 123 | 11 | 85 | 85 | 86 | 86 |
| 08/31/2026 | 19:00:00 | 243 | 93 | 18:00:01 | 86 | 18:59:05 | 86 | 67 | 18:50:01 | 51 | 18:04:00 | 65.71 | 0 | 2.4 | 144 | 1 | 85 | 85 | 85 | 85 |
| 08/31/2026 | 20:00:00 | 243 | 86 | 19:00:01 | 82 | 19:54:02 | 82 | 76 | 19:51:05 | 66 | 19:00:01 | 75.09 | 0 | 1.6 | 120 | 0 | 85 | 85 | 85 | 84 |
| 08/31/2026 | 21:00:00 | 243 | 83 | 20:47:02 | 82 | 20:08:00 | 83 | 77 | 20:07:00 | 72 | 20:26:04 | 72.66 | 0 | 2.4 | 137 | 0 | 84 | 84 | 84 | 84 |
| 08/31/2026 | 22:00:00 | 243 | 83 | 21:00:00 | 81 | 21:56:03 | 81 | 76 | 21:59:04 | 73 | 21:01:02 | 75.93 | 0 | 2.0 | 141 | 0 | 84 | 84 | 84 | 83 |
| 08/31/2026 | 23:00:00 | 243 | 81 | 22:05:01 | 77 | 23:00:00 | 77 | 85 | 22:59:02 | 75 | 22:05:05 | 84.9 | 0 | 1.3 | 103 | 0 | 84 | 83 | 83 | 83 |
| 09/01/2026 | 0:00:00 | 244 | 78 | 23:38:05 | 77 | 23:59:05 | 77 | 86 | 23:18:04 | 82 | 23:40:03 | 84.7 | 0 | 0.9 | 104 | 0 | 83 | 83 | 83 | 82 |
| 09/01/2026 | 1:00:00 | 244 | 77 | 0:10:01 | 75 | 0:57:02 | 75 | 89 | 0:55:01 | 85 | 0:00:01 | 89.1 | 0 | 0.6 | 126 | 0 | 83 | 83 | 82 | 82 |
| 09/01/2026 | 2:00:00 | 244 | 75 | 1:16:04 | 74 | 1:31:03 | 75 | 90 | 1:07:00 | 87 | 1:44:00 | 88.3 | 0 | 0.3 | 26 | 0 | 83 | 82 | 82 | 81 |
| 09/01/2026 | 3:00:00 | 244 | 76 | 2:22:03 | 75 | 2:00:00 | 75 | 89 | 2:00:05 | 87 | 2:47:00 | 88.2 | 0 | 0.2 | 200 | 0 | 82 | 82 | 81 | 81 |
| 09/01/2026 | 4:00:00 | 244 | 75 | 3:30:04 | 74 | 3:57:04 | 74 | 90 | 3:59:02 | 88 | 3:31:01 | 90.1 | 0 | 0.3 | 58 | 0 | 82 | 82 | 81 | 81 |
| 09/01/2026 | 5:00:00 | 244 | 74 | 4:00:01 | 73 | 4:59:03 | 73 | 93 | 5:00:00 | 90 | 4:01:02 | 92.9 | 0 | 0.2 | 155 | 0 | 82 | 82 | 81 | 81 |
| 09/01/2026 | 6:00:00 | 244 | 73 | 5:59:05 | 72 | 5:30:00 | 73 | 95 | 5:58:02 | 93 | 5:04:02 | 94.6 | 0 | 0.2 | 122 | 1 | 81 | 81 | 80 | 80 |
| 09/01/2026 | 7:00:00 | 244 | 81 | 6:57:05 | 73 | 6:00:00 | 81 | 95 | 6:05:00 | 84 | 6:59:00 | 83.9 | 0 | 0.5 | 67 | 12 | 81 | 81 | 80 | 80 |
| 09/01/2026 | 8:00:00 | 244 | 88 | 7:57:03 | 81 | 7:00:00 | 87 | 86 | 7:01:00 | 63 | 7:58:00 | 63.74 | 0 | 1.7 | 136 | 28 | 81 | 81 | 80 | 81 |
| 09/01/2026 | 9:00:00 | 244 | 92 | 8:57:02 | 87 | 8:00:01 | 91 | 66 | 8:04:04 | 55 | 8:35:03 | 62.83 | 0 | 3.0 | 211 | 44 | 81 | 81 | 81 | 82 |
| 09/01/2026 | 10:00:00 | 244 | 94 | 9:55:02 | 90 | 9:07:03 | 92 | 69 | 9:05:00 | 54 | 9:25:00 | 62.51 | 0 | 3.1 | 120 | 58 | 82 | 82 | 82 | 83 |
| 09/01/2026 | 11:00:00 | 244 | 96 | 10:40:04 | 92 | 10:15:04 | 95 | 64 | 10:12:01 | 51 | 10:47:04 | 52.3 | 0 | 4.8 | 131 | 70 | 82 | 83 | 84 | 84 |
| 09/01/2026 | 12:00:00 | 244 | 97 | 11:50:00 | 94 | 11:26:00 | 97 | 60 | 11:54:05 | 45 | 11:49:00 | 48.66 | 0 | 5.4 | 143 | 77 | 83 | 84 | 85 | 86 |
| 09/01/2026 | 13:00:00 | 244 | 98 | 12:32:00 | 94 | 12:53:01 | 95 | 59 | 12:18:04 | 43 | 12:26:02 | 48.2 | 0 | 5.4 | 131 | 69 | 84 | 85 | 86 | 87 |
| 09/01/2026 | 14:00:00 | 244 | 101 | 13:58:03 | 95 | 13:00:00 | 100 | 55 | 13:03:01 | 40 | 13:54:00 | 42.84 | 0 | 5.6 | 146 | 72 | 85 | 85 | 87 | 87 |
| 09/01/2026 | 15:00:00 | 244 | 101 | 14:35:02 | 96 | 14:59:05 | 96 | 54 | 14:48:00 | 40 | 14:00:02 | 50.29 | 0 | 5.1 | 122 | 63 | 86 | 86 | 88 | 88 |
| 09/01/2026 | 16:00:00 | 244 | 101 | 15:31:04 | 96 | 15:02:01 | 98 | 55 | 15:01:05 | 40 | 15:32:04 | 44.06 | 0 | 6.2 | 152 | 41 | 86 | 86 | 88 | 88 |
| 09/01/2026 | 17:00:00 | 244 | 98 | 16:00:00 | 93 | 16:59:04 | 93 | 53 | 16:52:01 | 43 | 16:00:01 | 52.59 | 0 | 7.0 | 202 | 9 | 86 | 86 | 87 | 87 |
| 09/01/2026 | 18:00:00 | 244 | 95 | 17:30:03 | 92 | 17:57:00 | 92 | 54 | 17:56:02 | 50 | 17:29:04 | 53.72 | 0 | 3.2 | 208 | 5 | 86 | 86 | 86 | 86 |
| 09/01/2026 | 19:00:00 | 244 | 92 | 18:00:03 | 84 | 19:00:00 | 84 | 74 | 18:56:03 | 53 | 18:01:05 | 72.76 | 0 | 0.5 | 178 | 1 | 86 | 85 | 86 | 85 |
| 09/01/2026 | 20:00:00 | 244 | 85 | 19:00:00 | 82 | 19:58:05 | 82 | 79 | 19:57:04 | 71 | 19:10:01 | 77.76 | 0 | 0.4 | 123 | 0 | 85 | 85 | 85 | 85 |
| 09/01/2026 | 21:00:00 | 244 | 82 | 20:00:02 | 80 | 20:59:05 | 80 | 84 | 20:58:05 | 71 | 20:03:00 | 83.9 | 0 | 1.0 | 174 | 0 | 85 | 85 | 85 | 84 |
| 09/01/2026 | 22:00:00 | 244 | 80 | 21:51:05 | 79 | 21:22:03 | 80 | 86 | 21:34:00 | 81 | 21:51:02 | 82.5 | 0 | 1.3 | 71 | 0 | 84 | 84 | 84 | 84 |
| 09/01/2026 | 23:00:00 | 244 | 80 | 22:00:03 | 77 | 22:59:01 | 77 | 87 | 23:00:00 | 83 | 22:01:04 | 87.2 | 0 | 0.0 | 196 | 0 | 84 | 84 | 83 | 83 |
| 09/02/2026 | 0:00:00 | 245 | 78 | 23:59:04 | 77 | 23:16:03 | 78 | 88 | 23:48:02 | 82 | 23:17:03 | 86.3 | 0 | 0.5 | 137 | 0 | 84 | 83 | 83 | 83 |
| 09/02/2026 | 1:00:00 | 245 | 78 | 0:00:04 | 76 | 0:34:05 | 76 | 90 | 0:40:00 | 86 | 0:01:03 | 89.7 | 0 | 0.1 | 105 | 0 | 83 | 83 | 83 | 82 |
| 09/02/2026 | 2:00:00 | 245 | 76 | 1:00:00 | 74 | 1:34:04 | 75 | 92 | 2:00:00 | 87 | 1:34:02 | 91.9 | 0 | 0.1 | 139 | 0 | 83 | 83 | 82 | 82 |
| 09/02/2026 | 3:00:00 | 245 | 75 | 2:01:05 | 74 | 2:40:04 | 74 | 93 | 2:11:02 | 90 | 2:40:05 | 92.6 | 0 | 0.5 | 99 | 0 | 83 | 82 | 82 | 82 |
| 09/02/2026 | 4:00:00 | 245 | 74 | 3:00:00 | 73 | 3:34:01 | 74 | 94 | 3:12:05 | 92 | 3:45:02 | 93.3 | 0 | 0.1 | 25 | 0 | 82 | 82 | 81 | 81 |
| 09/02/2026 | 5:00:00 | 245 | 74 | 4:15:00 | 73 | 4:35:01 | 73 | 95 | 4:58:04 | 93 | 4:04:04 | 94.8 | 0 | 0.2 | 127 | 0 | 82 | 82 | 81 | 81 |
| 09/02/2026 | 6:00:00 | 245 | 73 | 6:00:00 | 72 | 5:11:01 | 73 | 96 | 5:52:03 | 95 | 5:00:02 | 95.6 | 0 | 0.0 | 0 | 1 | 82 | 82 | 81 | 81 |
| 09/02/2026 | 7:00:00 | 245 | 81 | 6:59:00 | 73 | 6:00:00 | 81 | 96 | 6:04:04 | 86 | 6:57:00 | 86.6 | 0 | 0.6 | 105 | 11 | 81 | 81 | 81 | 81 |
| 09/02/2026 | 8:00:00 | 245 | 88 | 7:50:05 | 81 | 7:01:00 | 86 | 87 | 7:00:01 | 69 | 7:51:02 | 74.91 | 0 | 1.7 | 93 | 27 | 81 | 82 | 81 | 81 |
| 09/02/2026 | 9:00:00 | 245 | 90 | 8:42:04 | 86 | 8:00:00 | 90 | 75 | 8:00:01 | 64 | 8:43:01 | 64.89 | 0 | 2.5 | 175 | 43 | 82 | 82 | 82 | 82 |
| 09/02/2026 | 10:00:00 | 245 | 94 | 9:57:04 | 89 | 9:18:05 | 94 | 73 | 9:26:00 | 56 | 9:59:01 | 58.75 | 0 | 3.1 | 146 | 57 | 82 | 82 | 83 | 83 |
| 09/02/2026 | 11:00:00 | 245 | 95 | 10:58:04 | 92 | 10:31:03 | 95 | 67 | 10:33:01 | 54 | 10:58:04 | 56.37 | 0 | 4.2 | 152 | 68 | 83 | 83 | 84 | 85 |
| 09/02/2026 | 12:00:00 | 245 | 98 | 11:51:02 | 92 | 11:16:04 | 95 | 65 | 11:14:05 | 49 | 11:45:05 | 53.6 | 0 | 5.6 | 165 | 72 | 84 | 84 | 85 | 86 |
| 09/02/2026 | 13:00:00 | 245 | 99 | 12:59:05 | 95 | 12:00:00 | 99 | 59 | 12:39:03 | 46 | 12:57:02 | 47.48 | 0 | 6.3 | 188 | 76 | 85 | 85 | 86 | 87 |
| 09/02/2026 | 14:00:00 | 245 | 101 | 13:47:05 | 96 | 13:24:03 | 99 | 58 | 13:25:05 | 43 | 13:47:02 | 47.48 | 0 | 4.7 | 163 | 71 | 85 | 86 | 87 | 88 |
| 09/02/2026 | 15:00:00 | 245 | 101 | 14:52:03 | 99 | 14:01:03 | 100 | 51 | 14:01:02 | 41 | 14:52:04 | 41.98 | 0 | 7.4 | 187 | 61 | 86 | 86 | 88 | 88 |
| 09/02/2026 | 16:00:00 | 245 | 101 | 15:04:02 | 96 | 15:52:05 | 98 | 54 | 15:51:04 | 41 | 15:03:03 | 45.59 | 0 | 4.9 | 156 | 31 | 86 | 86 | 88 | 88 |
| 09/02/2026 | 17:00:00 | 245 | 100 | 16:08:02 | 81 | 16:30:02 | 83 | 88 | 16:58:02 | 43 | 16:05:05 | 86.9 | 0.19 | 6.9 | 135 | 12 | 86 | 86 | 87 | 87 |
| 09/02/2026 | 18:00:00 | 245 | 86 | 17:46:05 | 83 | 17:00:00 | 85 | 87 | 17:00:00 | 80 | 17:08:02 | 86.3 | 0 | 1.4 | 3 | 11 | 86 | 86 | 86 | 86 |
| 09/02/2026 | 19:00:00 | 245 | 86 | 18:12:02 | 83 | 18:58:05 | 83 | 90 | 18:45:05 | 83 | 18:06:05 | 87.6 | 0 | 1.2 | 40 | 2 | 86 | 86 | 86 | 86 |
| 09/02/2026 | 20:00:00 | 245 | 83 | 19:00:04 | 81 | 19:59:00 | 81 | 93 | 20:00:00 | 87 | 19:14:02 | 92.5 | 0 | 0.4 | 101 | 0 | 86 | 85 | 86 | 85 |
| 09/02/2026 | 21:00:00 | 245 | 81 | 20:05:04 | 80 | 20:48:05 | 80 | 95 | 20:59:04 | 91 | 20:23:02 | 94.7 | 0 | 0.5 | 237 | 0 | 85 | 85 | 85 | 85 |
| 09/02/2026 | 22:00:00 | 245 | 80 | 21:00:00 | 78 | 21:42:04 | 79 | 95 | 21:57:03 | 95 | 21:17:05 | 95.2 | 0 | 0.6 | 183 | 0 | 85 | 85 | 85 | 84 |
| 09/02/2026 | 23:00:00 | 245 | 79 | 22:22:04 | 78 | 22:59:03 | 78 | 96 | 22:20:02 | 95 | 22:00:04 | 95.4 | 0 | 0.3 | 117 | 0 | 85 | 84 | 84 | 84 |
| 09/03/2026 | 0:00:00 | 246 | 78 | 23:08:00 | 77 | 23:57:03 | 77 | 96 | 23:45:02 | 95 | 23:00:05 | 95.9 | 0 | 0.4 | 218 | 0 | 84 | 84 | 84 | 83 |
| 09/03/2026 | 1:00:00 | 246 | 77 | 0:02:00 | 77 | 0:46:03 | 77 | 96 | 0:00:03 | 94 | 0:58:04 | 93.9 | 0 | 1.4 | 206 | 0 | 84 | 84 | 83 | 83 |
| 09/03/2026 | 2:00:00 | 246 | 77 | 1:00:02 | 76 | 1:59:01 | 76 | 94 | 1:59:05 | 93 | 1:17:03 | 94.1 | 0 | 0.9 | 215 | 0 | 84 | 83 | 83 | 83 |
| 09/03/2026 | 3:00:00 | 246 | 76 | 2:00:04 | 75 | 2:59:01 | 75 | 96 | 2:59:04 | 94 | 2:00:00 | 95.8 | 0 | 0.2 | 191 | 0 | 83 | 83 | 83 | 82 |
| 09/03/2026 | 4:00:00 | 246 | 76 | 3:00:05 | 75 | 3:35:01 | 75 | 96 | 4:00:00 | 96 | 3:00:04 | 96.3 | 0 | 0.4 | 224 | 0 | 83 | 83 | 82 | 82 |
| 09/03/2026 | 5:00:00 | 246 | 76 | 4:03:03 | 74 | 4:55:04 | 74 | 97 | 4:59:02 | 96 | 4:06:04 | 97 | 0 | 0.9 | 78 | 0 | 83 | 83 | 82 | 82 |
| 09/03/2026 | 6:00:00 | 246 | 75 | 5:59:04 | 74 | 5:03:04 | 75 | 98 | 5:58:03 | 97 | 5:02:01 | 97.5 | 0 | 0.3 | 228 | 1 | 82 | 82 | 82 | 81 |
| 09/03/2026 | 7:00:00 | 246 | 84 | 7:00:00 | 75 | 6:00:00 | 84 | 98 | 6:14:01 | 83 | 7:00:00 | 82.6 | 0 | 0.2 | 221 | 12 | 82 | 82 | 81 | 81 |
| 09/03/2026 | 8:00:00 | 246 | 89 | 7:21:02 | 83 | 7:33:00 | 84 | 84 | 7:35:02 | 74 | 7:22:04 | 77.29 | 0 | 2.2 | 306 | 27 | 82 | 82 | 82 | 82 |
| 09/03/2026 | 9:00:00 | 246 | 88 | 8:59:04 | 84 | 8:00:01 | 88 | 81 | 8:01:04 | 70 | 8:43:03 | 70.66 | 0 | 4.0 | 324 | 43 | 82 | 82 | 82 | 83 |
| 09/03/2026 | 10:00:00 | 246 | 92 | 10:00:00 | 88 | 9:00:01 | 92 | 72 | 9:13:03 | 61 | 9:55:04 | 65.61 | 0 | 0.3 | 350 | 56 | 83 | 83 | 83 | 84 |
| 09/03/2026 | 11:00:00 | 246 | 95 | 10:51:00 | 91 | 10:21:00 | 93 | 69 | 10:20:00 | 54 | 10:50:02 | 59.67 | 0 | 3.0 | 136 | 67 | 83 | 84 | 84 | 85 |
| 09/03/2026 | 12:00:00 | 246 | 98 | 11:32:04 | 94 | 11:00:00 | 97 | 68 | 11:02:05 | 49 | 11:31:03 | 54.55 | 0 | 2.3 | 115 | 78 | 84 | 85 | 86 | 87 |
| 09/03/2026 | 13:00:00 | 246 | 97 | 12:00:01 | 93 | 12:17:01 | 95 | 66 | 12:19:05 | 49 | 12:48:01 | 54.97 | 0 | 3.2 | 77 | 54 | 85 | 86 | 87 | 88 |
| 09/03/2026 | 14:00:00 | 246 | 100 | 13:30:03 | 95 | 13:00:00 | 98 | 60 | 13:01:00 | 43 | 13:38:04 | 48.77 | 0 | 4.1 | 209 | 53 | 86 | 86 | 88 | 89 |
| 09/03/2026 | 15:00:00 | 246 | 99 | 14:25:01 | 88 | 15:00:00 | 88 | 60 | 14:59:00 | 42 | 14:27:03 | 59.54 | 0 | 7.7 | 233 | 33 | 87 | 87 | 89 | 88 |
| 09/03/2026 | 16:00:00 | 246 | 95 | 15:48:05 | 86 | 15:13:04 | 92 | 64 | 15:14:00 | 49 | 15:49:00 | 57.25 | 0 | 7.2 | 254 | 27 | 87 | 87 | 88 | 88 |
| 09/03/2026 | 17:00:00 | 246 | 94 | 16:21:04 | 87 | 16:53:05 | 88 | 68 | 16:55:01 | 51 | 16:22:04 | 66.16 | 0 | 7.2 | 42 | 28 | 87 | 87 | 87 | 87 |
| 09/03/2026 | 18:00:00 | 246 | 89 | 17:15:05 | 86 | 17:33:01 | 88 | 71 | 17:47:03 | 64 | 17:14:01 | 67.78 | 0 | 4.2 | 113 | 11 | 86 | 86 | 87 | 87 |
| 09/03/2026 | 19:00:00 | 246 | 88 | 18:02:04 | 85 | 18:57:01 | 85 | 70 | 18:37:01 | 67 | 18:46:04 | 69.7 | 0 | 3.9 | 200 | 1 | 86 | 86 | 86 | 86 |
| 09/03/2026 | 20:00:00 | 246 | 85 | 19:00:04 | 82 | 20:00:00 | 82 | 80 | 20:00:00 | 70 | 19:00:02 | 79.78 | 0 | 4.5 | 199 | 0 | 86 | 86 | 86 | 85 |
| 09/03/2026 | 21:00:00 | 246 | 82 | 20:00:00 | 79 | 20:46:05 | 79 | 88 | 20:49:00 | 80 | 20:00:00 | 86.8 | 0 | 1.2 | 105 | 0 | 85 | 85 | 85 | 85 |
| 09/03/2026 | 22:00:00 | 246 | 79 | 21:06:04 | 78 | 21:38:00 | 78 | 91 | 21:37:01 | 87 | 21:04:00 | 89.4 | 0 | 0.8 | 36 | 0 | 85 | 85 | 85 | 84 |
| 09/03/2026 | 23:00:00 | 246 | 78 | 22:00:00 | 76 | 22:59:01 | 76 | 93 | 22:51:02 | 89 | 22:00:01 | 92.6 | 0 | 0.2 | 187 | 0 | 85 | 84 | 84 | 84 |
| 09/04/2026 | 0:00:00 | 247 | 76 | 23:00:01 | 75 | 23:47:00 | 75 | 95 | 23:58:00 | 93 | 23:43:05 | 94.6 | 0 | 1.4 | 166 | 0 | 84 | 84 | 83 | 83 |
| 09/04/2026 | 1:00:00 | 247 | 76 | 0:48:01 | 75 | 0:20:05 | 75 | 96 | 0:43:05 | 94 | 0:19:01 | 95.2 | 0 | 1.6 | 143 | 0 | 84 | 84 | 83 | 83 |
| 09/04/2026 | 2:00:00 | 247 | 76 | 1:34:03 | 75 | 1:00:00 | 76 | 95 | 1:00:02 | 93 | 1:35:02 | 93.3 | 0 | 1.8 | 110 | 0 | 83 | 83 | 83 | 82 |
| 09/04/2026 | 3:00:00 | 247 | 76 | 2:07:03 | 75 | 2:53:04 | 75 | 95 | 2:59:03 | 93 | 2:11:00 | 95 | 0 | 0.7 | 185 | 0 | 83 | 83 | 82 | 82 |
| 09/04/2026 | 4:00:00 | 247 | 75 | 3:00:00 | 74 | 3:59:04 | 74 | 96 | 3:46:01 | 94 | 3:09:01 | 95.6 | 0 | 0.5 | 336 | 0 | 83 | 83 | 82 | 82 |
| 09/04/2026 | 5:00:00 | 247 | 74 | 4:00:02 | 73 | 4:53:05 | 73 | 97 | 4:56:05 | 96 | 4:03:01 | 96.5 | 0 | 0.4 | 306 | 0 | 82 | 81 | 81 | 79 |
| 09/04/2026 | 6:00:00 | 247 | 74 | 5:22:05 | 72 | 5:56:05 | 73 | 97 | 5:20:03 | 96 | 5:11:03 | 96.8 | 0 | 0.3 | 30 | 0 | 81 | 81 | 79 | 79 |
| 09/04/2026 | 7:00:00 | 247 | 76 | 6:58:03 | 72 | 6:00:01 | 76 | 98 | 6:55:04 | 97 | 6:17:02 | 97.1 | 0 | 0.2 | 89 | 5 | 80 | 80 | 79 | 78 |
| 09/04/2026 | 8:00:00 | 247 | 82 | 8:00:00 | 76 | 7:00:01 | 82 | 97 | 7:01:05 | 86 | 7:58:03 | 86.3 | 0 | 0.7 | 76 | 15 | 80 | 80 | 78 | 78 |
| 09/04/2026 | 9:00:00 | 247 | 87 | 8:56:01 | 82 | 8:00:00 | 87 | 87 | 8:02:00 | 72 | 8:59:05 | 72.36 | 0 | 0.7 | 63 | 28 | 80 | 80 | 78 | 78 |
| 09/04/2026 | 10:00:00 | 247 | 92 | 9:56:02 | 87 | 9:00:01 | 91 | 74 | 9:00:04 | 59 | 9:56:05 | 64.72 | 0 | 2.6 | 12 | 53 | 80 | 80 | 79 | 79 |
| 09/04/2026 | 11:00:00 | 247 | 94 | 10:47:05 | 91 | 10:00:00 | 93 | 68 | 10:26:05 | 54 | 10:47:00 | 63.06 | 0 | 3.4 | 33 | 66 | 80 | 80 | 80 | 81 |
| 09/04/2026 | 12:00:00 | 247 | 96 | 11:37:02 | 92 | 11:59:00 | 92 | 66 | 11:01:00 | 52 | 11:14:04 | 58.27 | 0 | 3.6 | 88 | 66 | 81 | 82 | 82 | 83 |
| 09/04/2026 | 13:00:00 | 247 | 96 | 12:43:05 | 91 | 12:34:00 | 93 | 67 | 12:33:03 | 50 | 12:46:01 | 59.49 | 0 | 4.1 | 92 | 59 | 82 | 83 | 84 | 85 |
| 09/04/2026 | 14:00:00 | 247 | 97 | 13:24:00 | 92 | 13:39:03 | 93 | 62 | 13:39:01 | 47 | 13:23:02 | 58.7 | 0 | 3.9 | 75 | 39 | 83 | 84 | 86 | 86 |
| 09/04/2026 | 15:00:00 | 247 | 95 | 14:09:02 | 89 | 15:00:00 | 89 | 69 | 14:59:04 | 49 | 14:08:03 | 68.39 | 0 | 5.1 | 277 | 16 | 84 | 84 | 86 | 86 |
| 09/04/2026 | 16:00:00 | 247 | 92 | 15:44:03 | 88 | 15:04:01 | 91 | 70 | 15:11:01 | 60 | 15:50:04 | 62.37 | 0 | 7.5 | 192 | 23 | 85 | 85 | 86 | 86 |
| 09/04/2026 | 17:00:00 | 247 | 91 | 16:10:02 | 89 | 16:41:00 | 90 | 65 | 16:03:02 | 59 | 16:15:05 | 61.1 | 0 | 5.7 | 149 | 19 | 85 | 85 | 86 | 85 |
| 09/04/2026 | 18:00:00 | 247 | 91 | 17:49:02 | 89 | 18:00:00 | 89 | 66 | 18:00:00 | 58 | 17:34:03 | 65.7 | 0 | 3.6 | 191 | 9 | 85 | 85 | 85 | 85 |
| 09/04/2026 | 19:00:00 | 247 | 89 | 18:00:00 | 86 | 18:59:00 | 86 | 74 | 18:46:03 | 66 | 18:00:01 | 71.25 | 0 | 1.4 | 182 | 0 | 85 | 85 | 85 | 85 |
| 09/04/2026 | 20:00:00 | 247 | 86 | 19:00:00 | 82 | 19:53:03 | 83 | 82 | 19:50:03 | 71 | 19:01:04 | 79.55 | 0 | 1.1 | 165 | 0 | 84 | 84 | 85 | 85 |
| 09/04/2026 | 21:00:00 | 247 | 84 | 20:14:02 | 83 | 20:00:00 | 83 | 80 | 20:59:00 | 77 | 20:12:05 | 79.84 | 0 | 6.6 | 209 | 0 | 84 | 84 | 84 | 84 |
| 09/04/2026 | 22:00:00 | 247 | 83 | 21:00:01 | 81 | 21:59:04 | 81 | 81 | 21:59:05 | 80 | 21:03:01 | 81.3 | 0 | 5.4 | 237 | 0 | 84 | 84 | 84 | 84 |
| 09/04/2026 | 23:00:00 | 247 | 81 | 22:00:00 | 80 | 22:48:04 | 80 | 85 | 22:50:00 | 81 | 22:00:03 | 84.8 | 0 | 4.5 | 222 | 0 | 84 | 84 | 83 | 83 |
| Average | 85.22 | 81.63 | 83.32 | 77.4 | 67.65 | 72.43 | 0 | 2.5 | 21.18 | 83.22 | 83.22 | 83.23 | 83.24 | |||||||
| Total | 0.19 |